createdAt,value
2022-09-20T00:01:26.101Z,1.02
2022-09-20T00:03:55.885Z,1.10
2022-09-20T00:06:26.412Z,1.05
2022-09-20T00:08:54.946Z,1.13
2022-09-20T00:11:25.677Z,1.23
2022-09-20T00:13:56.318Z,1.70
2022-09-20T00:16:27.058Z,1.00
2022-09-20T00:18:57.529Z,1.15
2022-09-20T00:21:28.095Z,1.73
2022-09-20T00:23:58.295Z,1.30
2022-09-20T00:26:29.160Z,1.73
2022-09-20T00:29:00.124Z,1.55
2022-09-20T00:31:28.650Z,1.38
2022-09-20T00:34:14.750Z,1.50
2022-09-20T00:36:43.266Z,1.10
2022-09-20T00:39:13.351Z,1.80
2022-09-20T00:41:43.298Z,0.77
2022-09-20T00:44:43.633Z,1.55
2022-09-20T00:47:18.108Z,1.02
2022-09-20T00:49:46.945Z,1.27
2022-09-20T00:52:16.634Z,1.45
2022-09-20T00:54:45.121Z,1.25
2022-09-20T00:57:14.875Z,1.20
2022-09-20T00:59:47.002Z,1.50
2022-09-20T01:02:19.238Z,1.10
2022-09-20T01:04:48.551Z,1.20
2022-09-20T01:07:19.446Z,1.50
2022-09-20T01:09:47.922Z,1.50
2022-09-20T01:12:20.646Z,1.30
2022-09-20T01:14:51.942Z,1.60
2022-09-20T01:17:23.607Z,1.65
2022-09-20T01:20:07.415Z,1.40
2022-09-20T01:22:43.161Z,1.45
2022-09-20T01:25:16.830Z,1.73
2022-09-20T01:27:48.458Z,1.52
2022-09-20T01:30:20.038Z,1.67
2022-09-20T01:33:01.520Z,1.85
2022-09-20T01:35:30.413Z,2.00
2022-09-20T01:38:20.053Z,2.20
2022-09-20T01:40:58.205Z,2.20
2022-09-20T01:43:35.443Z,1.85
2022-09-20T01:46:14.237Z,1.90
2022-09-20T01:48:43.615Z,1.67
2022-09-20T01:51:29.357Z,2.00
2022-09-20T01:54:28.705Z,1.92
2022-09-20T01:57:31.931Z,1.60
2022-09-20T02:00:09.671Z,1.95
2022-09-20T02:03:01.667Z,2.30
2022-09-20T02:05:50.645Z,2.13
2022-09-20T02:08:46.021Z,2.08
2022-09-20T02:11:17.365Z,1.60
2022-09-20T02:14:02.766Z,2.47
2022-09-20T02:16:52.252Z,2.00
2022-09-20T02:19:41.181Z,2.15
2022-09-20T02:22:25.685Z,2.55
2022-09-20T02:25:03.055Z,2.33
2022-09-20T02:27:45.100Z,2.58
2022-09-20T02:30:24.523Z,2.45
2022-09-20T02:33:19.142Z,2.42
2022-09-20T02:36:04.857Z,2.20
2022-09-20T02:38:46.021Z,2.30
2022-09-20T02:41:39.674Z,2.60
2022-09-20T02:44:16.581Z,2.47
2022-09-20T02:46:53.310Z,2.90
2022-09-20T02:49:32.725Z,3.08
2022-09-20T02:52:08.409Z,2.58
2022-09-20T02:54:46.543Z,2.55
2022-09-20T02:57:22.711Z,3.35
2022-09-20T03:00:00.541Z,3.55
2022-09-20T03:02:37.309Z,2.70
2022-09-20T03:05:15.650Z,4.45
2022-09-20T03:08:03.011Z,2.58
2022-09-20T03:10:39.834Z,4.75
2022-09-20T03:13:19.929Z,2.38
2022-09-20T03:15:58.482Z,3.85
2022-09-20T03:18:37.578Z,2.90
2022-09-20T03:21:19.901Z,3.50
2022-09-20T03:24:01.406Z,2.60
2022-09-20T03:26:42.583Z,2.55
2022-09-20T03:29:24.364Z,3.03
2022-09-20T03:32:08.569Z,2.83
2022-09-20T03:34:49.343Z,2.88
2022-09-20T03:37:38.818Z,3.38
2022-09-20T03:40:25.728Z,3.50
2022-09-20T03:42:54.676Z,3.55
2022-09-20T03:45:48.806Z,4.95
2022-09-20T03:48:33.291Z,3.08
2022-09-20T03:51:14.085Z,2.58
2022-09-20T03:54:13.374Z,2.53
2022-09-20T03:57:41.022Z,2.70
2022-09-20T04:00:23.515Z,2.90
2022-09-20T04:03:22.952Z,3.03
2022-09-20T04:06:10.765Z,3.08
2022-09-20T04:08:57.537Z,2.67
2022-09-20T04:11:39.104Z,2.80
2022-09-20T04:14:17.447Z,2.67
2022-09-20T04:16:53.543Z,2.65
2022-09-20T04:19:32.885Z,4.05
2022-09-20T04:22:03.186Z,2.75
2022-09-20T04:24:41.882Z,3.60
2022-09-20T04:27:18.127Z,3.03
2022-09-20T04:29:51.724Z,2.80
2022-09-20T04:32:26.256Z,2.70
2022-09-20T04:35:21.584Z,2.80
2022-09-20T04:37:52.447Z,3.25
2022-09-20T04:40:33.058Z,5.22
2022-09-20T04:43:40.262Z,2.70
2022-09-20T04:46:35.680Z,2.88
2022-09-20T04:49:37.002Z,3.03
2022-09-20T04:52:35.668Z,2.78
2022-09-20T04:55:24.944Z,4.20
2022-09-20T04:58:21.230Z,3.53
2022-09-20T05:01:19.844Z,4.05
2022-09-20T05:04:11.182Z,2.80
2022-09-20T05:06:59.997Z,3.10
2022-09-20T05:10:06.646Z,2.85
2022-09-20T05:13:05.340Z,2.83
2022-09-20T05:15:43.417Z,2.30
2022-09-20T05:18:34.731Z,2.33
2022-09-20T05:21:30.841Z,2.58
2022-09-20T05:24:12.763Z,4.20
2022-09-20T05:26:53.278Z,3.03
2022-09-20T05:29:29.601Z,3.05
2022-09-20T05:32:06.486Z,3.38
2022-09-20T05:34:51.065Z,3.00
2022-09-20T05:37:33.814Z,3.17
2022-09-20T05:40:14.863Z,5.15
2022-09-20T05:42:48.730Z,3.28
2022-09-20T05:45:34.690Z,2.70
2022-09-20T05:48:13.469Z,3.05
2022-09-20T05:50:50.386Z,3.03
2022-09-20T05:53:51.497Z,2.55
2022-09-20T05:56:30.800Z,2.53
2022-09-20T05:59:16.820Z,2.20
2022-09-20T06:02:01.828Z,2.10
2022-09-20T06:04:35.725Z,2.50
2022-09-20T06:07:10.114Z,3.08
2022-09-20T06:09:59.728Z,2.50
2022-09-20T06:12:41.857Z,2.38
2022-09-20T06:15:21.741Z,3.20
2022-09-20T06:18:00.917Z,3.00
2022-09-20T06:20:35.067Z,2.78
2022-09-20T06:23:06.290Z,2.83
2022-09-20T06:25:47.702Z,2.63
2022-09-20T06:28:19.701Z,2.00
2022-09-20T06:30:52.491Z,2.13
2022-09-20T06:33:22.377Z,2.20
2022-09-20T06:35:58.822Z,2.17
2022-09-20T06:39:04.889Z,3.00
2022-09-20T06:41:35.803Z,2.85
2022-09-20T06:44:06.532Z,3.25
2022-09-20T06:46:36.993Z,5.97
2022-09-20T06:49:09.595Z,2.35
2022-09-20T06:51:39.273Z,1.70
2022-09-20T06:54:13.973Z,1.83
2022-09-20T06:56:46.834Z,1.80
2022-09-20T06:59:15.405Z,1.77
2022-09-20T07:01:44.412Z,2.70
2022-09-20T07:04:12.599Z,2.30
2022-09-20T07:06:41.106Z,2.10
2022-09-20T07:09:11.975Z,1.55
2022-09-20T07:11:40.115Z,1.83
2022-09-20T07:14:09.642Z,2.37
2022-09-20T07:16:38.050Z,3.30
2022-09-20T07:19:06.641Z,1.97
2022-09-20T07:21:34.799Z,1.60
2022-09-20T07:24:03.479Z,2.00
2022-09-20T07:26:32.441Z,2.57
2022-09-20T07:29:01.982Z,1.33
2022-09-20T07:31:32.182Z,1.87
2022-09-20T07:34:00.527Z,2.37
2022-09-20T07:36:29.359Z,1.77
2022-09-20T07:38:57.645Z,1.63
2022-09-20T07:41:26.623Z,1.47
2022-09-20T07:43:54.737Z,1.60
2022-09-20T07:46:24.159Z,1.73
2022-09-20T07:48:53.702Z,2.60
2022-09-20T07:51:21.811Z,2.20
2022-09-20T07:53:50.361Z,2.30
2022-09-20T07:56:19.309Z,2.10
2022-09-20T07:58:52.090Z,1.70
2022-09-20T08:01:22.215Z,1.70
2022-09-20T08:03:51.231Z,2.07
2022-09-20T08:06:21.468Z,4.67
2022-09-20T08:08:51.677Z,1.90
2022-09-20T08:11:27.810Z,1.93
2022-09-20T08:14:06.042Z,1.43
2022-09-20T08:16:39.909Z,1.80
2022-09-20T08:19:09.755Z,1.30
2022-09-20T08:21:39.890Z,3.03
2022-09-20T08:24:08.230Z,2.30
2022-09-20T08:26:37.215Z,1.80
2022-09-20T08:29:07.072Z,1.50
2022-09-20T08:31:38.202Z,0.97
2022-09-20T08:34:09.197Z,1.00
2022-09-20T08:36:41.240Z,1.37
2022-09-20T08:42:08.911Z,1.07
2022-09-20T08:44:57.876Z,0.87
2022-09-20T08:47:31.105Z,0.90
2022-09-20T08:50:08.989Z,1.20
2022-09-20T08:52:42.399Z,0.73
2022-09-20T08:55:16.918Z,1.23
2022-09-20T08:57:49.233Z,1.30
2022-09-20T09:00:20.203Z,1.40
2022-09-20T09:02:51.081Z,0.80
2022-09-20T09:05:33.206Z,1.07
2022-09-20T09:08:07.495Z,2.57
2022-09-20T09:10:43.112Z,1.53
2022-09-20T09:13:22.638Z,3.50
2022-09-20T09:15:56.928Z,0.97
2022-09-20T09:18:33.286Z,0.77
2022-09-20T09:21:04.158Z,2.23
2022-09-20T09:23:42.069Z,0.77
2022-09-20T09:26:21.206Z,1.63
2022-09-20T09:29:09.459Z,0.83
2022-09-20T09:31:39.773Z,1.37
2022-09-20T09:34:24.519Z,1.43
2022-09-20T09:36:54.385Z,1.23
2022-09-20T09:39:29.529Z,1.10
2022-09-20T09:42:00.958Z,1.03
2022-09-20T09:44:30.790Z,1.03
2022-09-20T09:46:59.599Z,1.07
2022-09-20T09:49:29.379Z,1.27
2022-09-20T09:52:07.769Z,0.70
2022-09-20T09:54:39.384Z,1.10
2022-09-20T09:57:33.060Z,1.20
2022-09-20T10:00:18.026Z,1.10
2022-09-20T10:03:05.391Z,1.97
2022-09-20T10:05:40.311Z,1.20
2022-09-20T10:08:19.674Z,1.03
2022-09-20T10:10:59.498Z,1.17
2022-09-20T10:13:37.053Z,1.87
2022-09-20T10:16:16.399Z,1.30
2022-09-20T10:18:56.755Z,0.87
2022-09-20T10:21:42.005Z,0.93
2022-09-20T10:24:26.297Z,1.47
2022-09-20T10:27:09.192Z,0.67
2022-09-20T10:29:53.086Z,0.90
2022-09-20T10:32:45.908Z,1.00
2022-09-20T10:35:26.495Z,0.80
2022-09-20T10:38:19.978Z,1.03
2022-09-20T10:41:25.836Z,1.03
2022-09-20T10:44:09.797Z,0.87
2022-09-20T10:46:51.669Z,1.30
2022-09-20T10:49:28.920Z,1.30
2022-09-20T10:52:11.425Z,1.90
2022-09-20T10:54:54.288Z,3.50
2022-09-20T10:57:47.591Z,1.67
2022-09-20T11:00:23.900Z,1.80
2022-09-20T11:03:11.331Z,1.40
2022-09-20T11:05:51.961Z,1.43
2022-09-20T11:08:23.243Z,2.00
2022-09-20T11:10:55.474Z,1.50
2022-09-20T11:13:31.707Z,1.30
2022-09-20T11:16:07.029Z,1.60
2022-09-20T11:18:41.489Z,1.53
2022-09-20T11:21:16.567Z,1.60
2022-09-20T11:23:52.418Z,1.33
2022-09-20T11:26:29.178Z,1.07
2022-09-20T11:29:04.662Z,1.43
2022-09-20T11:31:41.058Z,1.67
2022-09-20T11:34:15.549Z,1.10
2022-09-20T11:36:52.286Z,1.10
2022-09-20T11:39:26.718Z,1.30
2022-09-20T11:41:57.830Z,1.30
2022-09-20T11:44:26.005Z,1.20
2022-09-20T11:46:59.891Z,1.10
2022-09-20T11:49:33.490Z,1.23
2022-09-20T11:52:39.333Z,1.40
2022-09-20T11:55:26.743Z,1.43
2022-09-20T11:58:08.095Z,1.50
2022-09-20T12:00:38.786Z,1.27
2022-09-20T12:03:22.436Z,1.33
2022-09-20T12:05:58.151Z,1.60
2022-09-20T12:08:29.403Z,1.20
2022-09-20T12:11:01.810Z,1.10
2022-09-20T12:13:29.985Z,1.40
2022-09-20T12:16:04.724Z,1.33
2022-09-20T12:18:47.258Z,1.10
2022-09-20T12:21:18.182Z,1.20
2022-09-20T12:24:23.551Z,1.50
2022-09-20T12:27:00.010Z,1.10
2022-09-20T12:30:03.375Z,1.10
2022-09-20T12:33:01.075Z,1.10
2022-09-20T12:36:16.079Z,1.43
2022-09-20T12:39:03.658Z,1.30
2022-09-20T12:41:47.509Z,1.50
2022-09-20T12:44:34.179Z,1.57
2022-09-20T12:47:04.631Z,1.47
2022-09-20T12:50:08.882Z,1.37
2022-09-20T12:52:53.703Z,1.20
2022-09-20T12:55:38.445Z,1.30
2022-09-20T12:58:18.894Z,5.50
2022-09-20T13:00:50.314Z,1.20
2022-09-20T13:03:28.743Z,1.43
2022-09-20T13:06:32.756Z,1.63
2022-09-20T13:09:08.589Z,1.50
2022-09-20T13:11:42.006Z,1.27
2022-09-20T13:14:15.590Z,1.30
2022-09-20T13:16:52.247Z,1.40
2022-09-20T13:19:29.382Z,1.53
2022-09-20T13:22:02.294Z,1.20
2022-09-20T13:24:35.644Z,1.60
2022-09-20T13:27:08.885Z,1.20
2022-09-20T13:29:42.313Z,1.37
2022-09-20T13:32:17.493Z,1.33
2022-09-20T13:34:46.679Z,1.07
2022-09-20T13:37:21.081Z,1.10
2022-09-20T13:39:54.489Z,1.60
2022-09-20T13:42:23.153Z,1.40
2022-09-20T13:44:51.530Z,1.30
2022-09-20T13:47:25.524Z,1.30
2022-09-20T13:49:54.022Z,1.33
2022-09-20T13:52:26.367Z,1.83
2022-09-20T13:54:56.407Z,1.50
2022-09-20T13:57:28.830Z,1.40
2022-09-20T13:59:58.216Z,1.37
2022-09-20T14:02:30.531Z,1.40
2022-09-20T14:05:02.310Z,1.20
2022-09-20T14:07:31.100Z,1.40
2022-09-20T14:10:01.212Z,1.80
2022-09-20T14:12:29.814Z,2.33
2022-09-20T14:14:59.235Z,1.50
2022-09-20T14:17:37.258Z,1.27
2022-09-20T14:20:06.278Z,1.50
2022-09-20T14:22:34.667Z,1.03
2022-09-20T14:25:19.702Z,1.00
2022-09-20T14:27:47.863Z,0.90
2022-09-20T14:30:30.747Z,1.80
2022-09-20T14:32:59.994Z,0.87
2022-09-20T14:35:28.977Z,1.00
2022-09-20T14:38:00.489Z,1.40
2022-09-20T14:40:32.508Z,0.90
2022-09-20T14:43:02.578Z,1.20
2022-09-20T14:45:33.048Z,1.23
2022-09-20T14:48:09.587Z,1.20
2022-09-20T14:50:40.707Z,1.53
2022-09-20T14:53:26.151Z,2.40
2022-09-20T14:56:11.449Z,1.30
2022-09-20T14:59:20.282Z,1.00
2022-09-20T15:01:58.432Z,0.83
2022-09-20T15:04:28.450Z,1.20
2022-09-20T15:06:57.746Z,1.43
2022-09-20T15:09:26.289Z,1.03
2022-09-20T15:12:03.927Z,0.90
2022-09-20T15:14:37.211Z,1.63
2022-09-20T15:17:06.271Z,1.23
2022-09-20T15:19:34.499Z,1.67
2022-09-20T15:22:02.970Z,1.40
2022-09-20T15:24:31.082Z,1.20
2022-09-20T15:26:59.260Z,1.30
2022-09-20T15:29:28.802Z,1.67
2022-09-20T15:31:56.995Z,2.00
2022-09-20T15:34:25.245Z,3.90
2022-09-20T15:36:54.220Z,1.27
2022-09-20T15:39:23.748Z,1.43
2022-09-20T15:41:53.271Z,1.30
2022-09-20T15:44:21.404Z,1.40
2022-09-20T15:46:53.689Z,2.17
2022-09-20T15:49:22.289Z,2.00
2022-09-20T15:51:50.530Z,1.60
2022-09-20T15:54:18.715Z,2.40
2022-09-20T15:56:46.836Z,2.20
2022-09-20T15:59:16.409Z,2.00
2022-09-20T16:01:48.182Z,2.10
2022-09-20T16:04:19.490Z,1.77
2022-09-20T16:06:49.677Z,3.27
2022-09-20T16:09:18.392Z,2.30
2022-09-20T16:11:47.221Z,2.70
2022-09-20T16:14:15.801Z,2.50
2022-09-20T16:16:44.019Z,2.37
2022-09-20T16:19:17.454Z,2.00
2022-09-20T16:21:53.595Z,2.30
2022-09-20T16:24:26.169Z,4.13
2022-09-20T16:26:54.741Z,2.70
2022-09-20T16:29:23.550Z,2.30
2022-09-20T16:31:51.886Z,3.50
2022-09-20T16:34:22.175Z,2.80
2022-09-20T16:36:53.161Z,3.50
2022-09-20T16:39:27.536Z,3.50
2022-09-20T16:41:57.849Z,3.03
2022-09-20T16:44:26.001Z,4.73
2022-09-20T16:46:54.083Z,3.30
2022-09-20T16:49:25.959Z,3.10
2022-09-20T16:51:56.102Z,3.17
2022-09-20T16:54:27.393Z,3.70
2022-09-20T16:56:58.049Z,2.97
2022-09-20T16:59:26.459Z,3.38
2022-09-20T17:01:55.145Z,5.28
2022-09-20T17:04:23.762Z,4.38
2022-09-20T17:06:52.309Z,4.30
2022-09-20T17:09:21.901Z,3.80
2022-09-20T17:11:51.402Z,4.82
2022-09-20T17:14:21.934Z,5.30
2022-09-20T17:16:50.377Z,5.40
2022-09-20T17:19:20.705Z,5.35
2022-09-20T17:21:51.255Z,5.90
2022-09-20T17:24:22.446Z,6.78
2022-09-20T17:26:51.749Z,8.50
2022-09-20T17:29:20.871Z,7.95
2022-09-20T17:31:55.187Z,9.15
2022-09-20T17:34:25.113Z,6.68
2022-09-20T17:36:55.427Z,7.88
2022-09-20T17:39:25.594Z,7.38
2022-09-20T17:41:53.755Z,6.38
2022-09-20T17:44:21.864Z,7.75
2022-09-20T17:46:51.542Z,5.90
2022-09-20T17:49:21.209Z,6.00
2022-09-20T17:51:51.086Z,6.53
2022-09-20T17:54:20.194Z,5.07
2022-09-20T17:56:51.015Z,5.28
2022-09-20T17:59:20.633Z,4.88
2022-09-20T18:01:50.494Z,4.70
2022-09-20T18:04:20.918Z,4.72
2022-09-20T18:06:51.222Z,5.22
2022-09-20T18:09:21.092Z,6.93
2022-09-20T18:11:52.692Z,8.20
2022-09-20T18:14:23.743Z,8.15
2022-09-20T18:16:53.300Z,9.00
2022-09-20T18:19:22.765Z,6.63
2022-09-20T18:21:51.256Z,5.75
2022-09-20T18:24:19.396Z,6.13
2022-09-20T18:26:47.538Z,4.70
2022-09-20T18:29:18.246Z,4.65
2022-09-20T18:31:48.906Z,5.70
2022-09-20T18:34:18.801Z,4.68
2022-09-20T18:36:51.594Z,4.57
2022-09-20T18:39:21.046Z,4.28
2022-09-20T18:41:50.559Z,4.90
2022-09-20T18:44:20.917Z,5.05
2022-09-20T18:46:49.433Z,7.70
2022-09-20T18:49:17.754Z,6.80
2022-09-20T18:51:47.201Z,5.97
2022-09-20T18:54:16.401Z,4.75
2022-09-20T18:56:46.298Z,4.95
2022-09-20T18:59:16.974Z,4.63
2022-09-20T19:02:32.402Z,7.03
2022-09-20T19:05:14.109Z,5.00
2022-09-20T19:07:52.597Z,7.20
2022-09-20T19:10:26.145Z,5.32
2022-09-20T19:13:01.186Z,4.18
2022-09-20T19:15:41.088Z,4.90
2022-09-20T19:18:25.158Z,3.50
2022-09-20T19:21:00.637Z,3.90
2022-09-20T19:23:53.482Z,5.68
2022-09-20T19:26:23.571Z,4.70
2022-09-20T19:28:53.456Z,5.20
2022-09-20T19:31:24.309Z,5.07
2022-09-20T19:33:55.001Z,7.97
2022-09-20T19:36:26.129Z,5.25
2022-09-20T19:39:05.384Z,3.88
2022-09-20T19:41:48.436Z,3.60
2022-09-20T19:44:32.354Z,4.55
2022-09-20T19:47:19.695Z,6.38
2022-09-20T19:49:54.954Z,4.70
2022-09-20T19:52:25.485Z,4.93
2022-09-20T19:54:54.418Z,5.07
2022-09-20T19:57:25.069Z,4.85
2022-09-20T19:59:53.640Z,4.40
2022-09-20T20:02:21.942Z,3.83
2022-09-20T20:04:52.706Z,3.65
2022-09-20T20:07:33.472Z,4.22
2022-09-20T20:10:11.858Z,3.60
2022-09-20T20:12:49.054Z,4.85
2022-09-20T20:15:26.504Z,5.32
2022-09-20T20:18:02.089Z,4.28
2022-09-20T20:20:34.962Z,4.20
2022-09-20T20:23:44.591Z,4.22
2022-09-20T20:26:20.302Z,3.25
2022-09-20T20:28:48.678Z,4.20
2022-09-20T20:31:16.824Z,4.80
2022-09-20T20:33:44.995Z,3.63
2022-09-20T20:36:13.132Z,3.60
2022-09-20T20:38:46.388Z,3.90
2022-09-20T20:41:18.371Z,3.88
2022-09-20T20:43:47.935Z,4.40
2022-09-20T20:46:18.712Z,4.80
2022-09-20T20:48:48.419Z,5.22
2022-09-20T20:51:18.218Z,7.18
2022-09-20T20:53:49.722Z,6.85
2022-09-20T20:56:20.438Z,9.93
2022-09-20T20:58:50.186Z,10.55
2022-09-20T21:01:19.905Z,14.20
2022-09-20T21:03:49.537Z,11.75
2022-09-20T21:06:18.209Z,11.52
2022-09-20T21:08:49.885Z,9.40
2022-09-20T21:11:23.328Z,10.63
2022-09-20T21:13:51.437Z,8.23
2022-09-20T21:16:21.838Z,6.30
2022-09-20T21:18:51.428Z,6.60
2022-09-20T21:21:21.105Z,6.75
2022-09-20T21:23:52.585Z,5.55
2022-09-20T21:26:21.509Z,6.88
2022-09-20T21:28:52.338Z,7.28
2022-09-20T21:31:21.993Z,6.13
2022-09-20T21:33:50.161Z,5.70
2022-09-20T21:36:20.359Z,5.82
2022-09-20T21:38:50.072Z,6.50
2022-09-20T21:41:22.413Z,5.38
2022-09-20T21:43:53.851Z,5.18
2022-09-20T21:46:23.223Z,5.68
2022-09-20T21:48:51.687Z,4.93
2022-09-20T21:51:21.657Z,7.00
2022-09-20T21:53:54.143Z,6.50
2022-09-20T21:56:22.689Z,6.82
2022-09-20T21:58:50.918Z,7.20
2022-09-20T22:01:21.335Z,5.63
2022-09-20T22:03:51.796Z,5.57
2022-09-20T22:06:21.538Z,5.35
2022-09-20T22:08:52.677Z,5.45
2022-09-20T22:11:22.852Z,8.18
2022-09-20T22:13:52.733Z,7.85
2022-09-20T22:16:22.547Z,6.70
2022-09-20T22:18:50.720Z,5.95
2022-09-20T22:21:20.882Z,7.57
2022-09-20T22:23:50.409Z,5.30
2022-09-20T22:26:21.743Z,3.67
2022-09-20T22:28:50.245Z,4.82
2022-09-20T22:31:21.024Z,4.53
2022-09-20T22:33:51.264Z,4.57
2022-09-20T22:36:21.938Z,4.75
2022-09-20T22:38:50.274Z,4.30
2022-09-20T22:41:21.186Z,3.72
2022-09-20T22:43:50.344Z,4.15
2022-09-20T22:46:20.202Z,3.80
2022-09-20T22:48:49.059Z,6.65
2022-09-20T22:51:18.840Z,4.75
2022-09-20T22:53:47.862Z,5.85
2022-09-20T22:56:18.285Z,3.78
2022-09-20T22:58:49.669Z,4.10
2022-09-20T23:01:19.909Z,3.50
2022-09-20T23:03:49.497Z,4.10
2022-09-20T23:06:20.933Z,3.72
2022-09-20T23:08:49.762Z,5.10
2022-09-20T23:11:18.694Z,4.43
2022-09-20T23:13:48.425Z,5.20
2022-09-20T23:16:19.175Z,5.63
2022-09-20T23:18:48.184Z,6.10
2022-09-20T23:21:17.457Z,5.35
2022-09-20T23:23:47.082Z,5.38
2022-09-20T23:26:18.560Z,5.40
2022-09-20T23:28:53.242Z,4.80
2022-09-20T23:31:21.683Z,5.53
2022-09-20T23:33:50.546Z,5.57
2022-09-20T23:36:19.809Z,8.95
2022-09-20T23:38:48.890Z,4.70
2022-09-20T23:41:19.346Z,8.82
2022-09-20T23:43:47.687Z,5.82
2022-09-20T23:46:19.653Z,5.20
2022-09-20T23:48:48.169Z,5.18
2022-09-20T23:51:18.495Z,4.95
2022-09-20T23:53:47.665Z,5.10
2022-09-20T23:56:16.006Z,4.70
2022-09-20T23:58:45.135Z,4.70
